createdAt,value
2019-04-20T00:01:31.958Z,7.60
2019-04-20T00:04:01.124Z,7.28
2019-04-20T00:06:39.856Z,6.50
2019-04-20T00:09:18.289Z,7.78
2019-04-20T00:11:53.537Z,7.67
2019-04-20T00:14:22.409Z,8.23
2019-04-20T00:16:50.553Z,7.80
2019-04-20T00:19:30.147Z,7.90
2019-04-20T00:22:02.932Z,7.73
2019-04-20T00:24:37.525Z,8.10
2019-04-20T00:27:32.939Z,7.00
2019-04-20T00:32:29.638Z,7.93
2019-04-20T00:34:50.743Z,7.60
2019-04-20T00:37:23.394Z,7.90
2019-04-20T00:39:57.759Z,8.35
2019-04-20T00:42:36.898Z,8.90
2019-04-20T00:45:10.611Z,8.10
2019-04-20T00:47:48.950Z,7.87
2019-04-20T00:50:32.639Z,8.18
2019-04-20T00:53:00.601Z,8.58
2019-04-20T00:55:19.011Z,9.07
2019-04-20T00:57:57.004Z,9.68
2019-04-20T01:00:42.506Z,9.83
2019-04-20T01:03:16.804Z,10.05
2019-04-20T01:05:54.096Z,9.90
2019-04-20T01:08:25.573Z,9.90
2019-04-20T01:10:59.098Z,9.80
2019-04-20T01:13:31.796Z,9.57
2019-04-20T01:16:10.818Z,9.80
2019-04-20T01:18:38.379Z,10.32
2019-04-20T01:21:17.547Z,9.73
2019-04-20T01:23:51.232Z,9.90
2019-04-20T01:26:21.488Z,10.33
2019-04-20T01:29:06.620Z,10.85
2019-04-20T01:31:35.541Z,10.53
2019-04-20T01:34:08.335Z,11.53
2019-04-20T01:36:50.397Z,11.10
2019-04-20T01:39:18.391Z,11.77
2019-04-20T01:41:41.342Z,12.00
2019-04-20T01:44:13.485Z,12.13
2019-04-20T01:46:51.426Z,11.57
2019-04-20T01:49:22.744Z,12.13
2019-04-20T01:52:04.866Z,12.03
2019-04-20T01:54:51.124Z,12.63
2019-04-20T01:57:13.643Z,11.65
2019-04-20T01:59:51.790Z,11.53
2019-04-20T02:02:34.398Z,13.03
2019-04-20T02:05:12.710Z,15.40
2019-04-20T02:07:43.578Z,18.75
2019-04-20T02:10:15.674Z,18.77
2019-04-20T02:12:51.884Z,19.17
2019-04-20T02:15:29.992Z,18.92
2019-04-20T02:18:07.502Z,18.25
2019-04-20T02:20:50.283Z,18.03
2019-04-20T02:23:16.457Z,17.80
2019-04-20T02:25:35.795Z,16.93
2019-04-20T02:28:27.252Z,17.80
2019-04-20T02:31:29.945Z,18.27
2019-04-20T02:36:47.954Z,17.53
2019-04-20T02:44:21.805Z,17.37
2019-04-20T02:46:52.629Z,16.90
2019-04-20T02:51:53.863Z,17.03
2019-04-20T02:57:05.735Z,19.37
2019-04-20T02:59:53.561Z,17.52
2019-04-20T03:01:55.318Z,17.92
2019-04-20T03:04:20.307Z,15.98
2019-04-20T03:06:59.364Z,18.57
2019-04-20T03:09:51.511Z,19.07
2019-04-20T03:12:17.035Z,19.93
2019-04-20T03:14:39.387Z,19.55
2019-04-20T03:17:21.423Z,19.80
2019-04-20T03:19:44.633Z,23.45
2019-04-20T03:22:33.733Z,23.38
2019-04-20T03:25:07.939Z,22.37
2019-04-20T03:27:33.181Z,23.67
2019-04-20T03:30:22.848Z,26.43
2019-04-20T03:33:03.821Z,27.60
2019-04-20T03:37:52.493Z,21.40
2019-04-20T03:40:21.326Z,25.77
2019-04-20T03:42:40.490Z,25.67
2019-04-20T03:45:17.233Z,25.27
2019-04-20T03:47:57.355Z,23.60
2019-04-20T03:50:41.170Z,18.60
2019-04-20T03:53:19.787Z,25.25
2019-04-20T03:55:44.824Z,22.90
2019-04-20T03:58:24.282Z,24.50
2019-04-20T04:00:59.849Z,26.73
2019-04-20T04:03:51.252Z,28.93
2019-04-20T04:06:09.575Z,28.87
2019-04-20T04:08:39.519Z,26.80
2019-04-20T04:11:26.254Z,26.05
2019-04-20T04:13:41.920Z,23.25
2019-04-20T04:16:17.330Z,24.20
2019-04-20T04:18:58.441Z,23.62
2019-04-20T04:21:41.184Z,21.97
2019-04-20T04:24:10.667Z,25.37
2019-04-20T04:26:44.138Z,25.55
2019-04-20T04:29:24.612Z,24.95
2019-04-20T04:32:06.674Z,25.83
2019-04-20T04:34:30.599Z,26.43
2019-04-20T04:37:03.692Z,26.33
2019-04-20T04:39:36.948Z,27.10
2019-04-20T04:42:16.648Z,26.10
2019-04-20T04:44:37.766Z,24.97
2019-04-20T04:47:02.772Z,23.60
2019-04-20T04:49:36.556Z,22.27
2019-04-20T04:52:10.347Z,20.62
2019-04-20T04:54:47.294Z,20.47
2019-04-20T04:57:13.574Z,19.80
2019-04-20T04:59:46.453Z,20.47
2019-04-20T05:02:22.531Z,17.82
2019-04-20T05:05:17.389Z,17.90
2019-04-20T05:07:51.945Z,14.95
2019-04-20T05:10:11.934Z,10.38
2019-04-20T05:12:44.083Z,7.50
2019-04-20T05:15:32.435Z,6.62
2019-04-20T05:18:13.110Z,5.70
2019-04-20T05:20:48.807Z,5.35
2019-04-20T05:23:16.306Z,4.30
2019-04-20T05:26:01.886Z,4.03
2019-04-20T05:28:33.603Z,4.30
2019-04-20T05:31:02.336Z,5.08
2019-04-20T05:33:57.125Z,4.50
2019-04-20T05:36:23.359Z,5.10
2019-04-20T05:39:02.552Z,4.95
2019-04-20T05:41:32.835Z,5.17
2019-04-20T05:44:08.757Z,4.45
2019-04-20T05:46:45.910Z,4.70
2019-04-20T05:49:23.345Z,4.62
2019-04-20T05:52:18.551Z,4.58
2019-04-20T05:54:26.819Z,4.60
2019-04-20T05:57:07.857Z,4.85
2019-04-20T05:59:34.796Z,4.80
2019-04-20T06:02:09.955Z,4.75
2019-04-20T06:04:58.787Z,4.85
2019-04-20T06:10:09.850Z,4.03
2019-04-20T06:15:18.423Z,3.70
2019-04-20T06:18:06.639Z,3.83
2019-04-20T06:21:02.283Z,5.20
2019-04-20T06:23:34.267Z,4.37
2019-04-20T06:26:12.754Z,3.98
2019-04-20T06:28:30.226Z,3.80
2019-04-20T06:31:11.343Z,6.30
2019-04-20T06:36:54.243Z,3.80
2019-04-20T06:39:31.164Z,3.70
2019-04-20T06:44:36.925Z,3.80
2019-04-20T06:47:24.493Z,4.67
2019-04-20T06:49:40.604Z,3.85
2019-04-20T06:52:26.196Z,3.60
2019-04-20T06:55:01.058Z,3.90
2019-04-20T06:57:43.476Z,3.70
2019-04-20T07:00:17.204Z,3.15
2019-04-20T07:02:49.675Z,3.22
2019-04-20T07:08:02.024Z,3.20
2019-04-20T07:10:31.366Z,2.98
2019-04-20T07:12:55.460Z,3.33
2019-04-20T07:15:32.956Z,3.25
2019-04-20T07:18:08.195Z,3.33
2019-04-20T07:20:55.652Z,2.85
2019-04-20T07:25:54.290Z,3.40
2019-04-20T07:28:32.748Z,3.50
2019-04-20T07:31:01.915Z,3.40
2019-04-20T07:33:40.240Z,3.30
2019-04-20T07:36:14.764Z,3.83
2019-04-20T07:38:52.166Z,3.22
2019-04-20T07:41:20.302Z,3.47
2019-04-20T07:43:59.063Z,3.30
2019-04-20T07:46:40.693Z,3.35
2019-04-20T07:48:54.381Z,3.05
2019-04-20T07:51:19.403Z,2.67
2019-04-20T07:54:10.581Z,2.98
2019-04-20T07:56:44.792Z,3.20
2019-04-20T07:58:57.097Z,3.10
2019-04-20T08:02:01.150Z,3.13
2019-04-20T08:04:30.049Z,2.70
2019-04-20T08:06:53.105Z,3.05
2019-04-20T08:09:30.735Z,3.00
2019-04-20T08:12:22.122Z,3.03
2019-04-20T08:14:57.539Z,2.80
2019-04-20T08:17:31.423Z,3.10
2019-04-20T08:20:00.137Z,2.90
2019-04-20T08:22:34.183Z,2.90
2019-04-20T08:25:01.901Z,2.95
2019-04-20T08:27:23.496Z,3.02
2019-04-20T08:30:09.208Z,3.12
2019-04-20T08:33:04.171Z,3.10
2019-04-20T08:35:51.188Z,2.77
2019-04-20T08:40:49.081Z,3.10
2019-04-20T08:43:39.543Z,3.05
2019-04-20T08:46:01.587Z,3.67
2019-04-20T08:48:33.233Z,3.20
2019-04-20T08:51:03.480Z,2.95
2019-04-20T08:53:36.462Z,3.37
2019-04-20T08:56:06.993Z,3.20
2019-04-20T08:58:27.173Z,3.02
2019-04-20T09:01:03.524Z,3.30
2019-04-20T09:03:46.244Z,3.58
2019-04-20T09:06:25.326Z,3.25
2019-04-20T09:08:53.205Z,3.40
2019-04-20T09:11:30.944Z,3.30
2019-04-20T09:13:52.004Z,3.90
2019-04-20T09:16:28.576Z,3.42
2019-04-20T09:18:59.974Z,3.35
2019-04-20T09:21:38.980Z,3.47
2019-04-20T09:24:26.813Z,3.25
2019-04-20T09:26:56.804Z,2.90
2019-04-20T09:29:19.527Z,3.40
2019-04-20T09:32:00.270Z,3.40
2019-04-20T09:34:42.641Z,3.27
2019-04-20T09:37:27.886Z,3.10
2019-04-20T09:39:54.371Z,3.40
2019-04-20T09:42:19.222Z,3.40
2019-04-20T09:44:55.918Z,2.90
2019-04-20T09:47:32.654Z,3.30
2019-04-20T09:50:10.834Z,3.40
2019-04-20T09:52:51.603Z,3.15
2019-04-20T09:55:18.774Z,3.22
2019-04-20T09:57:58.622Z,3.15
2019-04-20T10:00:29.169Z,3.33
2019-04-20T10:02:50.522Z,3.08
2019-04-20T10:05:23.300Z,3.20
2019-04-20T10:07:59.912Z,3.08
2019-04-20T10:10:35.979Z,2.90
2019-04-20T10:13:05.591Z,3.33
2019-04-20T10:15:37.514Z,3.50
2019-04-20T10:18:10.016Z,3.37
2019-04-20T10:20:43.526Z,3.22
2019-04-20T10:23:16.478Z,3.15
2019-04-20T10:25:48.764Z,3.35
2019-04-20T10:28:21.544Z,3.25
2019-04-20T10:30:54.636Z,2.80
2019-04-20T10:33:26.352Z,3.10
2019-04-20T10:35:59.409Z,3.25
2019-04-20T10:38:35.597Z,3.15
2019-04-20T10:43:38.746Z,3.05
2019-04-20T10:46:11.088Z,3.08
2019-04-20T10:48:47.989Z,3.20
2019-04-20T10:51:17.742Z,3.40
2019-04-20T10:53:50.613Z,3.42
2019-04-20T10:56:23.254Z,3.20
2019-04-20T10:58:56.101Z,3.05
2019-04-20T11:01:29.678Z,3.30
2019-04-20T11:04:03.013Z,3.52
2019-04-20T11:06:36.520Z,3.80
2019-04-20T11:09:09.000Z,3.27
2019-04-20T11:11:41.098Z,3.42
2019-04-20T11:14:20.907Z,3.08
2019-04-20T11:16:46.701Z,3.50
2019-04-20T11:19:21.213Z,2.95
2019-04-20T11:21:54.427Z,3.25
2019-04-20T11:24:28.229Z,3.70
2019-04-20T11:27:04.504Z,3.45
2019-04-20T11:29:38.543Z,3.30
2019-04-20T11:32:15.757Z,3.35
2019-04-20T11:34:49.183Z,3.50
2019-04-20T11:37:24.784Z,3.40
2019-04-20T11:40:01.353Z,3.15
2019-04-20T11:42:37.351Z,3.33
2019-04-20T11:45:10.911Z,3.00
2019-04-20T11:47:43.409Z,3.60
2019-04-20T11:50:19.850Z,3.30
2019-04-20T11:52:53.004Z,3.50
2019-04-20T11:55:24.893Z,3.45
2019-04-20T11:57:58.296Z,3.52
2019-04-20T12:06:02.771Z,3.95
2019-04-20T12:08:36.044Z,3.35
2019-04-20T12:11:22.997Z,3.52
2019-04-20T12:13:42.737Z,3.45
2019-04-20T12:16:14.628Z,3.83
2019-04-20T12:18:46.694Z,3.50
2019-04-20T12:21:19.018Z,3.15
2019-04-20T12:23:51.930Z,4.17
2019-04-20T12:28:57.897Z,3.30
2019-04-20T12:31:29.865Z,3.60
2019-04-20T12:34:02.260Z,3.10
2019-04-20T12:36:35.301Z,4.10
2019-04-20T12:39:10.971Z,3.50
2019-04-20T12:41:49.851Z,3.40
2019-04-20T12:44:17.554Z,4.28
2019-04-20T12:46:49.919Z,3.22
2019-04-20T12:49:21.627Z,3.17
2019-04-20T12:51:57.994Z,3.60
2019-04-20T12:54:27.091Z,3.50
2019-04-20T12:56:58.967Z,3.33
2019-04-20T12:59:31.667Z,3.25
2019-04-20T13:02:03.321Z,3.20
2019-04-20T13:04:37.273Z,4.28
2019-04-20T13:07:10.129Z,3.40
2019-04-20T13:09:50.791Z,3.30
2019-04-20T13:12:26.477Z,3.40
2019-04-20T13:15:08.634Z,3.37
2019-04-20T13:17:40.466Z,3.60
2019-04-20T13:20:14.038Z,3.52
2019-04-20T13:25:19.049Z,3.52
2019-04-20T13:27:51.009Z,3.70
2019-04-20T13:30:23.872Z,4.28
2019-04-20T13:32:57.108Z,3.22
2019-04-20T13:35:30.102Z,4.28
2019-04-20T13:38:02.427Z,3.87
2019-04-20T13:40:35.401Z,3.58
2019-04-20T13:43:09.915Z,3.55
2019-04-20T13:45:42.660Z,3.52
2019-04-20T13:48:15.200Z,3.37
2019-04-20T13:50:47.168Z,2.90
2019-04-20T13:53:19.176Z,3.08
2019-04-20T13:55:51.914Z,3.08
2019-04-20T13:58:41.804Z,3.12
2019-04-20T14:01:30.983Z,4.03
2019-04-20T14:04:14.891Z,3.60
2019-04-20T14:06:48.109Z,4.42
2019-04-20T14:09:21.349Z,6.08
2019-04-20T14:11:53.643Z,3.25
2019-04-20T14:14:25.641Z,3.50
2019-04-20T14:16:58.935Z,3.60
2019-04-20T14:19:31.424Z,4.00
2019-04-20T14:22:03.991Z,3.62
2019-04-20T14:24:37.128Z,3.35
2019-04-20T14:27:09.038Z,3.52
2019-04-20T14:29:41.232Z,3.45
2019-04-20T14:32:14.736Z,4.00
2019-04-20T14:34:47.048Z,4.05
2019-04-20T14:37:18.922Z,4.50
2019-04-20T14:39:52.335Z,3.77
2019-04-20T14:42:34.793Z,3.80
2019-04-20T14:44:57.612Z,3.62
2019-04-20T14:47:29.856Z,3.37
2019-04-20T14:50:03.209Z,4.00
2019-04-20T14:52:35.458Z,3.50
2019-04-20T14:55:07.903Z,3.37
2019-04-20T14:57:39.786Z,3.40
2019-04-20T15:00:27.848Z,3.20
2019-04-20T15:03:01.855Z,3.42
2019-04-20T15:08:04.823Z,3.87
2019-04-20T15:10:36.921Z,4.45
2019-04-20T15:13:10.142Z,5.30
2019-04-20T15:15:41.970Z,4.25
2019-04-20T15:18:15.560Z,3.77
2019-04-20T15:20:48.941Z,3.15
2019-04-20T15:23:23.620Z,3.50
2019-04-20T15:25:55.863Z,3.80
2019-04-20T15:28:28.488Z,4.12
2019-04-20T15:31:00.536Z,3.92
2019-04-20T15:33:33.369Z,4.30
2019-04-20T15:36:06.275Z,4.10
2019-04-20T15:38:38.799Z,6.80
2019-04-20T15:41:13.199Z,6.70
2019-04-20T15:43:45.402Z,5.08
2019-04-20T15:46:19.351Z,20.68
2019-04-20T15:48:52.379Z,14.70
2019-04-20T15:51:25.832Z,6.80
2019-04-20T15:53:57.769Z,12.60
2019-04-20T15:56:30.774Z,49.88
2019-04-20T15:59:02.457Z,16.02
2019-04-20T16:01:36.608Z,46.13
2019-04-20T16:04:24.308Z,7.55
2019-04-20T16:06:47.436Z,6.90
2019-04-20T16:09:19.955Z,7.65
2019-04-20T16:11:53.238Z,6.80
2019-04-20T16:14:25.790Z,4.83
2019-04-20T16:16:58.276Z,5.47
2019-04-20T16:19:40.708Z,6.35
2019-04-20T16:22:03.975Z,6.80
2019-04-20T16:24:46.863Z,5.78
2019-04-20T16:27:29.712Z,4.60
2019-04-20T16:30:02.043Z,5.60
2019-04-20T16:32:36.575Z,5.33
2019-04-20T16:35:09.071Z,6.03
2019-04-20T16:37:40.815Z,6.28
2019-04-20T16:40:13.834Z,4.50
2019-04-20T16:42:45.805Z,5.58
2019-04-20T16:45:19.055Z,7.45
2019-04-20T16:47:50.811Z,9.93
2019-04-20T16:50:22.913Z,9.75
2019-04-20T16:52:54.970Z,8.13
2019-04-20T16:55:28.406Z,7.53
2019-04-20T16:58:01.653Z,6.45
2019-04-20T17:00:35.737Z,6.37
2019-04-20T17:03:07.494Z,6.00
2019-04-20T17:05:39.325Z,6.20
2019-04-20T17:08:11.319Z,7.15
2019-04-20T17:10:44.550Z,6.67
2019-04-20T17:13:28.408Z,6.37
2019-04-20T17:15:51.872Z,4.80
2019-04-20T17:18:23.643Z,5.28
2019-04-20T17:20:56.576Z,5.05
2019-04-20T17:23:28.599Z,7.87
2019-04-20T17:26:02.130Z,9.10
2019-04-20T17:28:52.542Z,6.25
2019-04-20T17:31:29.328Z,5.70
2019-04-20T17:34:11.078Z,4.85
2019-04-20T17:36:37.100Z,4.17
2019-04-20T17:39:12.028Z,5.03
2019-04-20T17:42:00.462Z,5.00
2019-04-20T17:44:33.420Z,5.37
2019-04-20T17:47:01.546Z,5.58
2019-04-20T17:49:35.467Z,5.37
2019-04-20T17:54:43.229Z,6.22
2019-04-20T17:57:17.136Z,6.00
2019-04-20T17:59:57.860Z,6.37
2019-04-20T18:02:49.345Z,7.45
2019-04-20T18:05:37.132Z,7.55
2019-04-20T18:08:10.593Z,10.93
2019-04-20T18:10:38.177Z,14.55
2019-04-20T18:12:58.662Z,16.82
2019-04-20T18:15:46.457Z,14.80
2019-04-20T18:18:35.473Z,21.80
2019-04-20T18:20:59.134Z,16.02
2019-04-20T18:23:36.579Z,20.70
2019-04-20T18:26:27.605Z,22.55
2019-04-20T18:29:03.514Z,30.50
2019-04-20T18:31:13.539Z,22.73
2019-04-20T18:33:46.501Z,20.77
2019-04-20T18:36:27.275Z,24.02
2019-04-20T18:38:58.616Z,27.93
2019-04-20T18:41:35.351Z,25.25
2019-04-20T18:44:00.816Z,25.52
2019-04-20T18:46:54.569Z,32.00
2019-04-20T18:49:18.220Z,32.20
2019-04-20T18:51:39.878Z,34.40
2019-04-20T18:54:19.451Z,35.98
2019-04-20T18:56:50.366Z,36.15
2019-04-20T18:59:19.054Z,37.05
2019-04-20T19:01:51.025Z,33.98
2019-04-20T19:04:25.867Z,30.57
2019-04-20T19:06:57.257Z,29.67
2019-04-20T19:09:30.900Z,30.17
2019-04-20T19:12:06.056Z,29.48
2019-04-20T19:14:51.364Z,30.23
2019-04-20T19:17:48.473Z,32.10
2019-04-20T19:20:26.417Z,33.35
2019-04-20T19:22:56.310Z,32.48
2019-04-20T19:25:34.575Z,32.60
2019-04-20T19:28:04.973Z,34.33
2019-04-20T19:30:44.990Z,35.10
2019-04-20T19:33:30.241Z,35.73
2019-04-20T19:35:52.937Z,34.10
2019-04-20T19:38:23.726Z,35.50
2019-04-20T19:41:00.144Z,35.52
2019-04-20T19:43:32.960Z,37.60
2019-04-20T19:46:35.556Z,40.23
2019-04-20T19:48:43.255Z,40.23
2019-04-20T19:51:28.610Z,41.80
2019-04-20T19:54:00.047Z,44.33
2019-04-20T19:56:32.363Z,45.70
2019-04-20T19:58:56.336Z,49.35
2019-04-20T20:01:19.748Z,51.73
2019-04-20T20:06:35.441Z,46.80
2019-04-20T20:09:04.230Z,46.88
2019-04-20T20:11:38.527Z,43.90
2019-04-20T20:14:09.814Z,41.95
2019-04-20T20:17:01.616Z,34.18
2019-04-20T20:19:29.542Z,35.28
2019-04-20T20:22:02.400Z,35.43
2019-04-20T20:24:21.481Z,35.88
2019-04-20T20:27:00.327Z,31.33
2019-04-20T20:29:34.082Z,36.65
2019-04-20T20:32:13.275Z,36.63
2019-04-20T20:34:41.781Z,39.77
2019-04-20T20:37:12.506Z,40.30
2019-04-20T20:39:51.121Z,38.60
2019-04-20T20:42:28.228Z,44.88
2019-04-20T20:44:55.026Z,44.80
2019-04-20T20:47:41.355Z,44.27
2019-04-20T20:50:19.999Z,43.07
2019-04-20T20:52:43.691Z,43.10
2019-04-20T20:55:12.040Z,38.77
2019-04-20T20:57:44.551Z,39.92
2019-04-20T21:00:22.675Z,38.13
2019-04-20T21:02:53.114Z,36.53
2019-04-20T21:05:17.870Z,36.13
2019-04-20T21:07:51.317Z,38.60
2019-04-20T21:10:30.038Z,38.33
2019-04-20T21:13:01.369Z,37.17
2019-04-20T21:15:30.297Z,35.93
2019-04-20T21:18:28.756Z,36.40
2019-04-20T21:20:54.025Z,37.27
2019-04-20T21:23:26.028Z,37.03
2019-04-20T21:26:01.653Z,36.40
2019-04-20T21:28:36.078Z,37.77
2019-04-20T21:31:14.674Z,38.50
2019-04-20T21:33:42.889Z,39.45
2019-04-20T21:36:19.105Z,40.00
2019-04-20T21:38:49.933Z,40.48
2019-04-20T21:41:23.990Z,40.53
2019-04-20T21:43:55.984Z,38.73
2019-04-20T21:46:29.861Z,39.37
2019-04-20T21:49:12.509Z,41.30
2019-04-20T21:51:44.351Z,41.53
2019-04-20T21:54:09.658Z,42.45
2019-04-20T21:56:51.231Z,42.13
2019-04-20T21:59:24.428Z,39.70
2019-04-20T22:02:01.314Z,40.28
2019-04-20T22:04:23.157Z,40.08
2019-04-20T22:06:56.210Z,42.17
2019-04-20T22:09:34.738Z,39.67
2019-04-20T22:12:02.093Z,42.23
2019-04-20T22:14:35.633Z,39.97
2019-04-20T22:17:07.815Z,37.73
2019-04-20T22:19:47.436Z,36.70
2019-04-20T22:22:30.567Z,34.53
2019-04-20T22:25:02.614Z,34.23
2019-04-20T22:27:24.588Z,33.00
2019-04-20T22:29:54.363Z,32.40
2019-04-20T22:32:26.278Z,30.03
2019-04-20T22:35:03.188Z,30.27
2019-04-20T22:37:36.575Z,31.90
2019-04-20T22:40:14.129Z,30.30
2019-04-20T22:42:49.459Z,28.90
2019-04-20T22:45:17.366Z,30.97
2019-04-20T22:47:55.046Z,32.08
2019-04-20T22:50:38.878Z,30.80
2019-04-20T22:53:15.610Z,31.97
2019-04-20T22:55:58.068Z,30.30
2019-04-20T22:58:21.176Z,33.70
2019-04-20T23:00:45.279Z,32.17
2019-04-20T23:03:12.395Z,30.32
2019-04-20T23:05:44.921Z,33.77
2019-04-20T23:08:17.072Z,33.97
2019-04-20T23:10:49.804Z,31.07
2019-04-20T23:13:30.370Z,31.80
2019-04-20T23:15:59.121Z,32.70
2019-04-20T23:18:28.502Z,36.80
2019-04-20T23:21:07.973Z,35.53
2019-04-20T23:23:35.585Z,36.13
2019-04-20T23:26:07.334Z,34.50
2019-04-20T23:28:42.144Z,28.73
2019-04-20T23:31:18.343Z,26.60
2019-04-20T23:33:47.755Z,25.53
2019-04-20T23:36:29.279Z,27.80
2019-04-20T23:38:57.727Z,28.80
2019-04-20T23:41:26.369Z,28.05
2019-04-20T23:44:04.168Z,26.67
2019-04-20T23:46:35.051Z,31.97
2019-04-20T23:49:27.265Z,32.20
2019-04-20T23:52:21.951Z,29.63
2019-04-20T23:54:30.296Z,30.47
2019-04-20T23:57:01.812Z,27.37
2019-04-20T23:59:41.160Z,31.50
